sensor_id;sensor_type;location;lat;lon;timestamp;P1;durP1;ratioP1;P2;durP2;ratioP2
39888;SDS011;25563;50.844;4.308;2024-02-21T00:00:55;26.25;;;10.65;;
39888;SDS011;25563;50.844;4.308;2024-02-21T00:03:21;28.77;;;11.35;;
39888;SDS011;25563;50.844;4.308;2024-02-21T00:05:46;31.80;;;10.45;;
39888;SDS011;25563;50.844;4.308;2024-02-21T00:08:13;28.83;;;10.35;;
39888;SDS011;25563;50.844;4.308;2024-02-21T00:10:38;33.30;;;11.88;;
39888;SDS011;25563;50.844;4.308;2024-02-21T00:13:04;29.77;;;11.32;;
39888;SDS011;25563;50.844;4.308;2024-02-21T00:15:30;31.65;;;11.30;;
39888;SDS011;25563;50.844;4.308;2024-02-21T00:17:56;35.40;;;11.85;;
39888;SDS011;25563;50.844;4.308;2024-02-21T00:20:22;28.27;;;11.07;;
39888;SDS011;25563;50.844;4.308;2024-02-21T00:22:50;26.38;;;11.80;;
39888;SDS011;25563;50.844;4.308;2024-02-21T00:25:16;31.10;;;11.00;;
39888;SDS011;25563;50.844;4.308;2024-02-21T00:27:42;26.67;;;10.18;;
39888;SDS011;25563;50.844;4.308;2024-02-21T00:30:08;30.23;;;11.48;;
39888;SDS011;25563;50.844;4.308;2024-02-21T00:32:35;26.55;;;9.85;;
39888;SDS011;25563;50.844;4.308;2024-02-21T00:35:04;24.98;;;10.13;;
39888;SDS011;25563;50.844;4.308;2024-02-21T00:37:31;37.78;;;10.10;;
39888;SDS011;25563;50.844;4.308;2024-02-21T00:42:32;29.85;;;10.18;;
39888;SDS011;25563;50.844;4.308;2024-02-21T00:44:58;21.85;;;9.55;;
39888;SDS011;25563;50.844;4.308;2024-02-21T00:47:24;25.27;;;10.00;;
39888;SDS011;25563;50.844;4.308;2024-02-21T00:49:50;31.75;;;10.02;;
39888;SDS011;25563;50.844;4.308;2024-02-21T00:52:16;21.00;;;9.82;;
39888;SDS011;25563;50.844;4.308;2024-02-21T00:54:42;27.85;;;9.93;;
39888;SDS011;25563;50.844;4.308;2024-02-21T00:57:07;33.25;;;10.88;;
39888;SDS011;25563;50.844;4.308;2024-02-21T00:59:33;25.50;;;9.80;;
39888;SDS011;25563;50.844;4.308;2024-02-21T01:01:59;22.77;;;9.35;;
39888;SDS011;25563;50.844;4.308;2024-02-21T01:04:25;28.13;;;9.95;;
39888;SDS011;25563;50.844;4.308;2024-02-21T01:06:51;23.85;;;9.48;;
39888;SDS011;25563;50.844;4.308;2024-02-21T01:09:17;22.45;;;8.85;;
39888;SDS011;25563;50.844;4.308;2024-02-21T01:11:42;27.73;;;10.00;;
39888;SDS011;25563;50.844;4.308;2024-02-21T01:14:08;33.55;;;11.07;;
39888;SDS011;25563;50.844;4.308;2024-02-21T01:16:36;28.80;;;9.57;;
39888;SDS011;25563;50.844;4.308;2024-02-21T01:19:02;18.48;;;7.88;;
39888;SDS011;25563;50.844;4.308;2024-02-21T01:21:28;21.60;;;9.00;;
39888;SDS011;25563;50.844;4.308;2024-02-21T01:23:56;19.55;;;8.57;;
39888;SDS011;25563;50.844;4.308;2024-02-21T01:26:22;24.63;;;9.30;;
39888;SDS011;25563;50.844;4.308;2024-02-21T01:28:48;32.25;;;9.60;;
39888;SDS011;25563;50.844;4.308;2024-02-21T01:31:13;20.67;;;9.38;;
39888;SDS011;25563;50.844;4.308;2024-02-21T01:33:40;33.13;;;9.65;;
39888;SDS011;25563;50.844;4.308;2024-02-21T01:36:06;22.05;;;10.65;;
39888;SDS011;25563;50.844;4.308;2024-02-21T01:38:32;29.50;;;10.70;;
39888;SDS011;25563;50.844;4.308;2024-02-21T01:40:58;26.77;;;11.40;;
39888;SDS011;25563;50.844;4.308;2024-02-21T01:43:24;26.15;;;11.52;;
39888;SDS011;25563;50.844;4.308;2024-02-21T01:45:50;34.53;;;11.57;;
39888;SDS011;25563;50.844;4.308;2024-02-21T01:48:18;30.40;;;13.57;;
39888;SDS011;25563;50.844;4.308;2024-02-21T01:50:44;25.73;;;11.93;;
39888;SDS011;25563;50.844;4.308;2024-02-21T01:53:24;20.65;;;12.10;;
39888;SDS011;25563;50.844;4.308;2024-02-21T01:55:55;32.42;;;13.73;;
39888;SDS011;25563;50.844;4.308;2024-02-21T01:58:21;38.72;;;14.02;;
39888;SDS011;25563;50.844;4.308;2024-02-21T02:00:49;31.45;;;13.05;;
39888;SDS011;25563;50.844;4.308;2024-02-21T02:03:16;30.92;;;13.48;;
39888;SDS011;25563;50.844;4.308;2024-02-21T02:05:48;39.05;;;12.85;;
39888;SDS011;25563;50.844;4.308;2024-02-21T02:08:15;31.27;;;12.63;;
39888;SDS011;25563;50.844;4.308;2024-02-21T02:10:42;30.92;;;13.38;;
39888;SDS011;25563;50.844;4.308;2024-02-21T02:13:08;36.40;;;12.40;;
39888;SDS011;25563;50.844;4.308;2024-02-21T02:15:41;31.20;;;12.95;;
39888;SDS011;25563;50.844;4.308;2024-02-21T02:18:08;28.40;;;12.65;;
39888;SDS011;25563;50.844;4.308;2024-02-21T02:20:35;33.85;;;12.52;;
39888;SDS011;25563;50.844;4.308;2024-02-21T02:23:07;42.60;;;14.18;;
39888;SDS011;25563;50.844;4.308;2024-02-21T02:25:38;34.08;;;12.13;;
39888;SDS011;25563;50.844;4.308;2024-02-21T02:28:08;24.52;;;11.77;;
39888;SDS011;25563;50.844;4.308;2024-02-21T02:30:34;37.45;;;12.02;;
39888;SDS011;25563;50.844;4.308;2024-02-21T02:33:03;29.65;;;13.05;;
39888;SDS011;25563;50.844;4.308;2024-02-21T02:35:30;19.85;;;11.43;;
39888;SDS011;25563;50.844;4.308;2024-02-21T02:37:57;35.05;;;12.27;;
39888;SDS011;25563;50.844;4.308;2024-02-21T02:40:23;34.92;;;12.32;;
39888;SDS011;25563;50.844;4.308;2024-02-21T02:42:49;36.45;;;12.82;;
39888;SDS011;25563;50.844;4.308;2024-02-21T02:45:16;29.13;;;10.88;;
39888;SDS011;25563;50.844;4.308;2024-02-21T02:47:42;21.05;;;11.23;;
39888;SDS011;25563;50.844;4.308;2024-02-21T02:50:09;37.53;;;11.98;;
39888;SDS011;25563;50.844;4.308;2024-02-21T02:52:35;27.00;;;12.45;;
39888;SDS011;25563;50.844;4.308;2024-02-21T02:55:01;29.58;;;12.10;;
39888;SDS011;25563;50.844;4.308;2024-02-21T02:57:27;33.25;;;12.70;;
39888;SDS011;25563;50.844;4.308;2024-02-21T02:59:52;30.80;;;11.55;;
39888;SDS011;25563;50.844;4.308;2024-02-21T03:02:18;32.63;;;12.07;;
39888;SDS011;25563;50.844;4.308;2024-02-21T03:04:44;26.35;;;12.75;;
39888;SDS011;25563;50.844;4.308;2024-02-21T03:07:10;28.02;;;12.80;;
39888;SDS011;25563;50.844;4.308;2024-02-21T03:09:36;23.83;;;12.38;;
39888;SDS011;25563;50.844;4.308;2024-02-21T03:12:03;24.25;;;11.55;;
39888;SDS011;25563;50.844;4.308;2024-02-21T03:14:29;30.15;;;11.50;;
39888;SDS011;25563;50.844;4.308;2024-02-21T03:17:01;28.65;;;14.15;;
39888;SDS011;25563;50.844;4.308;2024-02-21T03:19:27;32.08;;;12.50;;
39888;SDS011;25563;50.844;4.308;2024-02-21T03:21:53;32.03;;;12.88;;
39888;SDS011;25563;50.844;4.308;2024-02-21T03:24:19;33.63;;;13.07;;
39888;SDS011;25563;50.844;4.308;2024-02-21T03:26:45;32.75;;;12.15;;
39888;SDS011;25563;50.844;4.308;2024-02-21T03:29:15;29.67;;;12.05;;
39888;SDS011;25563;50.844;4.308;2024-02-21T03:31:42;28.60;;;11.63;;
39888;SDS011;25563;50.844;4.308;2024-02-21T03:34:09;23.13;;;12.15;;
39888;SDS011;25563;50.844;4.308;2024-02-21T03:36:36;27.15;;;12.63;;
39888;SDS011;25563;50.844;4.308;2024-02-21T03:39:02;35.55;;;13.55;;
39888;SDS011;25563;50.844;4.308;2024-02-21T03:41:28;29.90;;;11.45;;
39888;SDS011;25563;50.844;4.308;2024-02-21T03:43:54;27.25;;;11.57;;
39888;SDS011;25563;50.844;4.308;2024-02-21T03:46:19;33.10;;;12.60;;
39888;SDS011;25563;50.844;4.308;2024-02-21T03:48:45;29.80;;;12.43;;
39888;SDS011;25563;50.844;4.308;2024-02-21T03:51:11;32.72;;;12.43;;
39888;SDS011;25563;50.844;4.308;2024-02-21T03:53:37;32.45;;;12.85;;
39888;SDS011;25563;50.844;4.308;2024-02-21T03:56:03;43.85;;;14.20;;
39888;SDS011;25563;50.844;4.308;2024-02-21T03:58:29;25.80;;;12.55;;
39888;SDS011;25563;50.844;4.308;2024-02-21T04:00:55;46.10;;;14.27;;
39888;SDS011;25563;50.844;4.308;2024-02-21T04:03:21;31.88;;;13.50;;
39888;SDS011;25563;50.844;4.308;2024-02-21T04:05:47;38.17;;;13.77;;
39888;SDS011;25563;50.844;4.308;2024-02-21T04:08:13;28.98;;;13.15;;
39888;SDS011;25563;50.844;4.308;2024-02-21T04:10:39;22.67;;;12.10;;
39888;SDS011;25563;50.844;4.308;2024-02-21T04:13:06;29.45;;;13.00;;
39888;SDS011;25563;50.844;4.308;2024-02-21T04:15:32;30.30;;;12.95;;
39888;SDS011;25563;50.844;4.308;2024-02-21T04:17:58;27.25;;;13.05;;
39888;SDS011;25563;50.844;4.308;2024-02-21T04:20:24;21.13;;;12.32;;
39888;SDS011;25563;50.844;4.308;2024-02-21T04:22:50;30.70;;;12.38;;
39888;SDS011;25563;50.844;4.308;2024-02-21T04:25:16;24.05;;;12.82;;
39888;SDS011;25563;50.844;4.308;2024-02-21T04:27:42;25.02;;;11.73;;
39888;SDS011;25563;50.844;4.308;2024-02-21T04:30:08;35.03;;;12.68;;
39888;SDS011;25563;50.844;4.308;2024-02-21T04:32:34;27.73;;;11.52;;
39888;SDS011;25563;50.844;4.308;2024-02-21T04:35:00;27.38;;;12.52;;
39888;SDS011;25563;50.844;4.308;2024-02-21T04:37:27;24.42;;;11.88;;
39888;SDS011;25563;50.844;4.308;2024-02-21T04:39:53;22.08;;;11.65;;
39888;SDS011;25563;50.844;4.308;2024-02-21T04:42:19;25.80;;;10.77;;
39888;SDS011;25563;50.844;4.308;2024-02-21T04:44:45;20.40;;;12.15;;
39888;SDS011;25563;50.844;4.308;2024-02-21T04:47:12;29.73;;;11.57;;
39888;SDS011;25563;50.844;4.308;2024-02-21T04:49:38;26.48;;;12.10;;
39888;SDS011;25563;50.844;4.308;2024-02-21T04:52:04;39.22;;;11.70;;
39888;SDS011;25563;50.844;4.308;2024-02-21T04:54:30;18.25;;;11.23;;
39888;SDS011;25563;50.844;4.308;2024-02-21T04:56:56;29.27;;;11.88;;
39888;SDS011;25563;50.844;4.308;2024-02-21T04:59:21;25.63;;;12.57;;
39888;SDS011;25563;50.844;4.308;2024-02-21T05:01:47;31.15;;;11.13;;
39888;SDS011;25563;50.844;4.308;2024-02-21T05:04:13;31.02;;;11.30;;
39888;SDS011;25563;50.844;4.308;2024-02-21T05:06:39;25.83;;;12.02;;
39888;SDS011;25563;50.844;4.308;2024-02-21T05:09:07;23.20;;;10.95;;
39888;SDS011;25563;50.844;4.308;2024-02-21T05:11:36;24.27;;;11.77;;
39888;SDS011;25563;50.844;4.308;2024-02-21T05:14:05;23.48;;;10.02;;
39888;SDS011;25563;50.844;4.308;2024-02-21T05:16:31;24.20;;;10.55;;
39888;SDS011;25563;50.844;4.308;2024-02-21T05:18:57;23.17;;;10.90;;
39888;SDS011;25563;50.844;4.308;2024-02-21T05:21:23;19.95;;;10.02;;
39888;SDS011;25563;50.844;4.308;2024-02-21T05:23:50;17.08;;;9.63;;
39888;SDS011;25563;50.844;4.308;2024-02-21T05:26:22;17.85;;;10.80;;
39888;SDS011;25563;50.844;4.308;2024-02-21T05:28:49;18.23;;;10.18;;
39888;SDS011;25563;50.844;4.308;2024-02-21T05:31:15;14.65;;;10.30;;
39888;SDS011;25563;50.844;4.308;2024-02-21T05:33:43;19.80;;;9.93;;
39888;SDS011;25563;50.844;4.308;2024-02-21T05:36:09;17.17;;;10.07;;
39888;SDS011;25563;50.844;4.308;2024-02-21T05:38:35;17.67;;;10.02;;
39888;SDS011;25563;50.844;4.308;2024-02-21T05:41:01;22.30;;;12.18;;
39888;SDS011;25563;50.844;4.308;2024-02-21T05:43:27;19.17;;;10.05;;
39888;SDS011;25563;50.844;4.308;2024-02-21T05:45:56;15.40;;;10.98;;
39888;SDS011;25563;50.844;4.308;2024-02-21T05:48:22;19.67;;;9.68;;
39888;SDS011;25563;50.844;4.308;2024-02-21T05:50:49;20.50;;;10.27;;
39888;SDS011;25563;50.844;4.308;2024-02-21T05:53:15;14.15;;;9.85;;
39888;SDS011;25563;50.844;4.308;2024-02-21T05:55:42;19.08;;;9.60;;
39888;SDS011;25563;50.844;4.308;2024-02-21T05:58:09;12.95;;;9.27;;
39888;SDS011;25563;50.844;4.308;2024-02-21T06:00:39;13.13;;;9.23;;
39888;SDS011;25563;50.844;4.308;2024-02-21T06:03:05;13.88;;;8.85;;
39888;SDS011;25563;50.844;4.308;2024-02-21T06:05:36;12.98;;;8.30;;
39888;SDS011;25563;50.844;4.308;2024-02-21T06:08:03;15.43;;;8.60;;
39888;SDS011;25563;50.844;4.308;2024-02-21T06:10:29;12.07;;;8.73;;
39888;SDS011;25563;50.844;4.308;2024-02-21T06:12:56;15.43;;;9.10;;
39888;SDS011;25563;50.844;4.308;2024-02-21T06:15:22;14.40;;;7.78;;
39888;SDS011;25563;50.844;4.308;2024-02-21T06:17:48;11.10;;;6.88;;
39888;SDS011;25563;50.844;4.308;2024-02-21T06:20:15;12.77;;;8.15;;
39888;SDS011;25563;50.844;4.308;2024-02-21T06:22:41;12.90;;;7.40;;
39888;SDS011;25563;50.844;4.308;2024-02-21T06:25:08;18.15;;;8.55;;
39888;SDS011;25563;50.844;4.308;2024-02-21T06:27:34;14.82;;;7.93;;
39888;SDS011;25563;50.844;4.308;2024-02-21T06:29:59;12.00;;;8.20;;
39888;SDS011;25563;50.844;4.308;2024-02-21T06:32:25;11.90;;;8.73;;
39888;SDS011;25563;50.844;4.308;2024-02-21T06:34:51;13.80;;;9.07;;
39888;SDS011;25563;50.844;4.308;2024-02-21T06:37:16;14.70;;;11.02;;
39888;SDS011;25563;50.844;4.308;2024-02-21T06:39:42;15.55;;;12.27;;
39888;SDS011;25563;50.844;4.308;2024-02-21T06:42:09;22.98;;;11.75;;
39888;SDS011;25563;50.844;4.308;2024-02-21T06:44:34;17.13;;;13.40;;
39888;SDS011;25563;50.844;4.308;2024-02-21T06:47:05;16.45;;;12.68;;
39888;SDS011;25563;50.844;4.308;2024-02-21T06:49:31;17.92;;;12.30;;
39888;SDS011;25563;50.844;4.308;2024-02-21T06:51:57;16.88;;;12.60;;
39888;SDS011;25563;50.844;4.308;2024-02-21T06:54:22;16.20;;;12.98;;
39888;SDS011;25563;50.844;4.308;2024-02-21T06:56:49;16.63;;;13.48;;
39888;SDS011;25563;50.844;4.308;2024-02-21T06:59:15;22.40;;;15.27;;
39888;SDS011;25563;50.844;4.308;2024-02-21T07:01:45;22.23;;;13.15;;
39888;SDS011;25563;50.844;4.308;2024-02-21T07:04:14;27.17;;;14.68;;
39888;SDS011;25563;50.844;4.308;2024-02-21T07:06:40;23.25;;;14.48;;
39888;SDS011;25563;50.844;4.308;2024-02-21T07:09:06;21.52;;;14.27;;
39888;SDS011;25563;50.844;4.308;2024-02-21T07:11:32;23.00;;;15.60;;
39888;SDS011;25563;50.844;4.308;2024-02-21T07:13:58;30.38;;;18.17;;
39888;SDS011;25563;50.844;4.308;2024-02-21T07:16:23;29.52;;;20.23;;
39888;SDS011;25563;50.844;4.308;2024-02-21T07:18:49;36.50;;;19.80;;
39888;SDS011;25563;50.844;4.308;2024-02-21T07:21:15;24.35;;;17.27;;
39888;SDS011;25563;50.844;4.308;2024-02-21T07:23:41;27.67;;;15.20;;
39888;SDS011;25563;50.844;4.308;2024-02-21T07:26:07;23.77;;;16.08;;
39888;SDS011;25563;50.844;4.308;2024-02-21T07:28:33;23.15;;;16.00;;
39888;SDS011;25563;50.844;4.308;2024-02-21T07:30:59;25.83;;;16.38;;
39888;SDS011;25563;50.844;4.308;2024-02-21T07:33:26;34.35;;;16.00;;
39888;SDS011;25563;50.844;4.308;2024-02-21T07:35:52;25.50;;;15.73;;
39888;SDS011;25563;50.844;4.308;2024-02-21T07:38:20;30.50;;;15.48;;
39888;SDS011;25563;50.844;4.308;2024-02-21T07:40:46;15.20;;;13.63;;
39888;SDS011;25563;50.844;4.308;2024-02-21T07:43:12;25.80;;;13.77;;
39888;SDS011;25563;50.844;4.308;2024-02-21T07:45:39;16.45;;;12.50;;
39888;SDS011;25563;50.844;4.308;2024-02-21T07:48:05;15.82;;;12.80;;
39888;SDS011;25563;50.844;4.308;2024-02-21T07:50:31;18.85;;;11.45;;
39888;SDS011;25563;50.844;4.308;2024-02-21T07:52:57;17.27;;;10.40;;
39888;SDS011;25563;50.844;4.308;2024-02-21T07:55:23;18.42;;;9.98;;
39888;SDS011;25563;50.844;4.308;2024-02-21T07:57:49;15.48;;;10.00;;
39888;SDS011;25563;50.844;4.308;2024-02-21T08:00:15;19.00;;;9.90;;
39888;SDS011;25563;50.844;4.308;2024-02-21T08:02:48;23.75;;;9.25;;
39888;SDS011;25563;50.844;4.308;2024-02-21T08:05:14;20.02;;;9.65;;
39888;SDS011;25563;50.844;4.308;2024-02-21T08:07:40;16.20;;;9.00;;
39888;SDS011;25563;50.844;4.308;2024-02-21T08:10:06;17.52;;;7.72;;
39888;SDS011;25563;50.844;4.308;2024-02-21T08:12:33;23.20;;;8.30;;
39888;SDS011;25563;50.844;4.308;2024-02-21T08:15:00;15.45;;;8.18;;
39888;SDS011;25563;50.844;4.308;2024-02-21T08:17:26;12.65;;;7.50;;
39888;SDS011;25563;50.844;4.308;2024-02-21T08:19:51;12.68;;;7.45;;
39888;SDS011;25563;50.844;4.308;2024-02-21T08:22:17;11.57;;;7.13;;
39888;SDS011;25563;50.844;4.308;2024-02-21T08:24:44;8.13;;;6.65;;
39888;SDS011;25563;50.844;4.308;2024-02-21T08:27:10;16.90;;;6.43;;
39888;SDS011;25563;50.844;4.308;2024-02-21T08:29:36;11.57;;;6.15;;
39888;SDS011;25563;50.844;4.308;2024-02-21T08:32:02;9.93;;;5.80;;
39888;SDS011;25563;50.844;4.308;2024-02-21T08:34:28;19.92;;;6.93;;
39888;SDS011;25563;50.844;4.308;2024-02-21T08:36:55;15.27;;;5.70;;
39888;SDS011;25563;50.844;4.308;2024-02-21T08:39:21;11.23;;;6.07;;
39888;SDS011;25563;50.844;4.308;2024-02-21T08:41:46;13.63;;;5.68;;
39888;SDS011;25563;50.844;4.308;2024-02-21T08:44:12;7.25;;;4.93;;
39888;SDS011;25563;50.844;4.308;2024-02-21T08:46:38;11.25;;;5.38;;
39888;SDS011;25563;50.844;4.308;2024-02-21T08:49:05;8.60;;;5.63;;
39888;SDS011;25563;50.844;4.308;2024-02-21T08:51:31;10.05;;;4.85;;
39888;SDS011;25563;50.844;4.308;2024-02-21T08:53:57;10.23;;;4.65;;
39888;SDS011;25563;50.844;4.308;2024-02-21T08:56:25;6.38;;;4.30;;
39888;SDS011;25563;50.844;4.308;2024-02-21T08:58:50;10.52;;;4.60;;
39888;SDS011;25563;50.844;4.308;2024-02-21T09:01:16;7.43;;;4.05;;
39888;SDS011;25563;50.844;4.308;2024-02-21T09:03:42;12.40;;;4.47;;
39888;SDS011;25563;50.844;4.308;2024-02-21T09:06:09;5.78;;;4.65;;
39888;SDS011;25563;50.844;4.308;2024-02-21T09:08:38;10.48;;;5.20;;
39888;SDS011;25563;50.844;4.308;2024-02-21T09:11:06;11.43;;;4.15;;
39888;SDS011;25563;50.844;4.308;2024-02-21T09:13:31;6.75;;;4.95;;
39888;SDS011;25563;50.844;4.308;2024-02-21T09:15:57;7.80;;;4.57;;
39888;SDS011;25563;50.844;4.308;2024-02-21T09:18:23;9.10;;;4.50;;
39888;SDS011;25563;50.844;4.308;2024-02-21T09:20:49;10.43;;;4.63;;
39888;SDS011;25563;50.844;4.308;2024-02-21T09:23:14;6.95;;;4.15;;
39888;SDS011;25563;50.844;4.308;2024-02-21T09:25:40;6.63;;;4.72;;
39888;SDS011;25563;50.844;4.308;2024-02-21T09:28:06;6.63;;;4.60;;
39888;SDS011;25563;50.844;4.308;2024-02-21T09:30:32;11.30;;;4.63;;
39888;SDS011;25563;50.844;4.308;2024-02-21T09:32:58;5.32;;;3.83;;
39888;SDS011;25563;50.844;4.308;2024-02-21T09:35:24;6.22;;;4.20;;
39888;SDS011;25563;50.844;4.308;2024-02-21T09:37:52;11.27;;;4.70;;
39888;SDS011;25563;50.844;4.308;2024-02-21T09:40:18;6.20;;;4.07;;
39888;SDS011;25563;50.844;4.308;2024-02-21T09:42:44;5.05;;;3.83;;
39888;SDS011;25563;50.844;4.308;2024-02-21T09:45:19;8.90;;;3.85;;
39888;SDS011;25563;50.844;4.308;2024-02-21T09:50:21;7.40;;;3.80;;
39888;SDS011;25563;50.844;4.308;2024-02-21T09:52:50;9.20;;;4.30;;
39888;SDS011;25563;50.844;4.308;2024-02-21T09:55:17;10.52;;;4.93;;
39888;SDS011;25563;50.844;4.308;2024-02-21T09:57:44;10.82;;;4.00;;
39888;SDS011;25563;50.844;4.308;2024-02-21T10:00:09;9.77;;;5.38;;
39888;SDS011;25563;50.844;4.308;2024-02-21T10:02:36;11.63;;;3.83;;
39888;SDS011;25563;50.844;4.308;2024-02-21T10:05:04;9.82;;;3.33;;
39888;SDS011;25563;50.844;4.308;2024-02-21T10:07:33;11.35;;;3.70;;
39888;SDS011;25563;50.844;4.308;2024-02-21T10:10:02;13.95;;;3.72;;
39888;SDS011;25563;50.844;4.308;2024-02-21T10:12:28;11.30;;;3.45;;
39888;SDS011;25563;50.844;4.308;2024-02-21T10:15:01;16.52;;;4.57;;
39888;SDS011;25563;50.844;4.308;2024-02-21T10:17:26;10.10;;;4.28;;
39888;SDS011;25563;50.844;4.308;2024-02-21T10:19:52;15.35;;;4.57;;
39888;SDS011;25563;50.844;4.308;2024-02-21T10:22:18;9.93;;;3.90;;
39888;SDS011;25563;50.844;4.308;2024-02-21T10:24:45;8.80;;;4.38;;
39888;SDS011;25563;50.844;4.308;2024-02-21T10:27:12;6.78;;;3.80;;
39888;SDS011;25563;50.844;4.308;2024-02-21T10:29:38;9.55;;;3.72;;
39888;SDS011;25563;50.844;4.308;2024-02-21T10:32:12;7.57;;;3.95;;
39888;SDS011;25563;50.844;4.308;2024-02-21T10:34:39;11.75;;;4.40;;
39888;SDS011;25563;50.844;4.308;2024-02-21T10:37:06;17.55;;;4.63;;
39888;SDS011;25563;50.844;4.308;2024-02-21T10:39:33;10.68;;;3.90;;
39888;SDS011;25563;50.844;4.308;2024-02-21T10:42:12;21.35;;;3.90;;
39888;SDS011;25563;50.844;4.308;2024-02-21T10:44:42;16.67;;;4.20;;
39888;SDS011;25563;50.844;4.308;2024-02-21T10:47:11;14.93;;;4.32;;
39888;SDS011;25563;50.844;4.308;2024-02-21T10:49:41;14.70;;;4.47;;
39888;SDS011;25563;50.844;4.308;2024-02-21T10:54:39;19.92;;;5.05;;
39888;SDS011;25563;50.844;4.308;2024-02-21T10:57:07;9.02;;;4.45;;
39888;SDS011;25563;50.844;4.308;2024-02-21T10:59:36;9.50;;;4.22;;
39888;SDS011;25563;50.844;4.308;2024-02-21T11:02:05;9.03;;;4.83;;
39888;SDS011;25563;50.844;4.308;2024-02-21T11:04:31;8.15;;;3.42;;
39888;SDS011;25563;50.844;4.308;2024-02-21T11:07:01;17.10;;;4.72;;
39888;SDS011;25563;50.844;4.308;2024-02-21T11:11:57;8.27;;;3.72;;
39888;SDS011;25563;50.844;4.308;2024-02-21T11:14:26;10.68;;;4.25;;
39888;SDS011;25563;50.844;4.308;2024-02-21T11:16:53;11.50;;;4.43;;
39888;SDS011;25563;50.844;4.308;2024-02-21T11:19:27;19.27;;;4.70;;
39888;SDS011;25563;50.844;4.308;2024-02-21T11:21:57;9.75;;;5.43;;
39888;SDS011;25563;50.844;4.308;2024-02-21T11:29:49;7.10;;;4.03;;
39888;SDS011;25563;50.844;4.308;2024-02-21T11:32:23;9.73;;;4.68;;
39888;SDS011;25563;50.844;4.308;2024-02-21T11:34:59;10.77;;;3.95;;
39888;SDS011;25563;50.844;4.308;2024-02-21T11:37:31;20.08;;;4.55;;
39888;SDS011;25563;50.844;4.308;2024-02-21T11:39:58;10.32;;;3.65;;
39888;SDS011;25563;50.844;4.308;2024-02-21T11:42:25;11.25;;;4.30;;
39888;SDS011;25563;50.844;4.308;2024-02-21T11:44:51;7.18;;;3.78;;
39888;SDS011;25563;50.844;4.308;2024-02-21T11:47:18;11.68;;;4.93;;
39888;SDS011;25563;50.844;4.308;2024-02-21T11:49:45;7.65;;;3.53;;
39888;SDS011;25563;50.844;4.308;2024-02-21T11:54:41;10.10;;;4.03;;
39888;SDS011;25563;50.844;4.308;2024-02-21T11:57:07;6.95;;;4.18;;
39888;SDS011;25563;50.844;4.308;2024-02-21T11:59:33;10.95;;;3.63;;
39888;SDS011;25563;50.844;4.308;2024-02-21T12:02:00;12.23;;;4.05;;
39888;SDS011;25563;50.844;4.308;2024-02-21T12:04:28;22.00;;;3.97;;
39888;SDS011;25563;50.844;4.308;2024-02-21T12:06:56;5.55;;;4.50;;
39888;SDS011;25563;50.844;4.308;2024-02-21T12:09:23;16.30;;;4.78;;
39888;SDS011;25563;50.844;4.308;2024-02-21T12:12:01;6.32;;;3.78;;
39888;SDS011;25563;50.844;4.308;2024-02-21T12:14:31;10.35;;;3.90;;
39888;SDS011;25563;50.844;4.308;2024-02-21T12:16:59;11.68;;;4.65;;
39888;SDS011;25563;50.844;4.308;2024-02-21T12:19:32;8.45;;;3.78;;
39888;SDS011;25563;50.844;4.308;2024-02-21T12:21:59;12.85;;;3.92;;
39888;SDS011;25563;50.844;4.308;2024-02-21T12:24:26;8.25;;;4.35;;
39888;SDS011;25563;50.844;4.308;2024-02-21T12:26:53;10.63;;;4.65;;
39888;SDS011;25563;50.844;4.308;2024-02-21T12:29:21;8.70;;;4.03;;
39888;SDS011;25563;50.844;4.308;2024-02-21T12:31:49;12.88;;;4.68;;
39888;SDS011;25563;50.844;4.308;2024-02-21T12:34:15;9.95;;;4.60;;
39888;SDS011;25563;50.844;4.308;2024-02-21T12:36:42;11.88;;;4.75;;
39888;SDS011;25563;50.844;4.308;2024-02-21T12:39:09;10.50;;;5.05;;
39888;SDS011;25563;50.844;4.308;2024-02-21T12:41:36;16.90;;;4.60;;
39888;SDS011;25563;50.844;4.308;2024-02-21T12:44:06;9.73;;;3.90;;
39888;SDS011;25563;50.844;4.308;2024-02-21T12:46:35;9.38;;;4.15;;
39888;SDS011;25563;50.844;4.308;2024-02-21T12:49:01;14.33;;;4.80;;
39888;SDS011;25563;50.844;4.308;2024-02-21T12:51:30;8.03;;;4.57;;
39888;SDS011;25563;50.844;4.308;2024-02-21T12:53:56;6.85;;;4.47;;
39888;SDS011;25563;50.844;4.308;2024-02-21T12:56:22;7.60;;;5.15;;
39888;SDS011;25563;50.844;4.308;2024-02-21T12:58:49;8.30;;;4.50;;
39888;SDS011;25563;50.844;4.308;2024-02-21T13:01:16;13.93;;;5.05;;
39888;SDS011;25563;50.844;4.308;2024-02-21T13:03:41;7.38;;;4.65;;
39888;SDS011;25563;50.844;4.308;2024-02-21T13:06:08;14.75;;;5.40;;
39888;SDS011;25563;50.844;4.308;2024-02-21T13:08:38;14.32;;;4.45;;
39888;SDS011;25563;50.844;4.308;2024-02-21T13:11:05;6.78;;;3.90;;
39888;SDS011;25563;50.844;4.308;2024-02-21T13:13:30;15.77;;;4.63;;
39888;SDS011;25563;50.844;4.308;2024-02-21T13:16:00;6.65;;;4.03;;
39888;SDS011;25563;50.844;4.308;2024-02-21T13:18:27;9.95;;;4.85;;
39888;SDS011;25563;50.844;4.308;2024-02-21T13:20:53;10.27;;;5.20;;
39888;SDS011;25563;50.844;4.308;2024-02-21T13:23:19;8.95;;;4.68;;
39888;SDS011;25563;50.844;4.308;2024-02-21T13:25:46;12.57;;;6.60;;
39888;SDS011;25563;50.844;4.308;2024-02-21T13:28:12;7.35;;;4.03;;
39888;SDS011;25563;50.844;4.308;2024-02-21T13:30:40;6.88;;;3.90;;
39888;SDS011;25563;50.844;4.308;2024-02-21T13:33:06;9.55;;;4.10;;
39888;SDS011;25563;50.844;4.308;2024-02-21T13:35:35;6.30;;;4.57;;
39888;SDS011;25563;50.844;4.308;2024-02-21T13:38:01;9.82;;;4.15;;
39888;SDS011;25563;50.844;4.308;2024-02-21T13:40:28;10.55;;;4.50;;
39888;SDS011;25563;50.844;4.308;2024-02-21T13:42:54;9.82;;;4.18;;
39888;SDS011;25563;50.844;4.308;2024-02-21T13:45:20;7.20;;;4.63;;
39888;SDS011;25563;50.844;4.308;2024-02-21T13:47:46;9.20;;;4.57;;
39888;SDS011;25563;50.844;4.308;2024-02-21T13:50:13;8.02;;;4.93;;
39888;SDS011;25563;50.844;4.308;2024-02-21T13:52:39;12.00;;;4.47;;
39888;SDS011;25563;50.844;4.308;2024-02-21T13:55:08;12.70;;;4.50;;
39888;SDS011;25563;50.844;4.308;2024-02-21T13:57:34;11.77;;;5.53;;
39888;SDS011;25563;50.844;4.308;2024-02-21T14:00:01;8.68;;;4.85;;
39888;SDS011;25563;50.844;4.308;2024-02-21T14:02:28;8.85;;;4.95;;
39888;SDS011;25563;50.844;4.308;2024-02-21T14:04:54;14.02;;;5.10;;
39888;SDS011;25563;50.844;4.308;2024-02-21T14:07:20;9.27;;;5.20;;
39888;SDS011;25563;50.844;4.308;2024-02-21T14:09:45;8.50;;;4.75;;
39888;SDS011;25563;50.844;4.308;2024-02-21T14:12:11;11.63;;;5.32;;
39888;SDS011;25563;50.844;4.308;2024-02-21T14:14:37;15.68;;;5.63;;
39888;SDS011;25563;50.844;4.308;2024-02-21T14:17:03;7.97;;;5.05;;
39888;SDS011;25563;50.844;4.308;2024-02-21T14:19:29;11.70;;;6.18;;
39888;SDS011;25563;50.844;4.308;2024-02-21T14:21:55;12.93;;;5.60;;
39888;SDS011;25563;50.844;4.308;2024-02-21T14:24:21;11.23;;;6.28;;
39888;SDS011;25563;50.844;4.308;2024-02-21T14:26:48;10.77;;;5.40;;
39888;SDS011;25563;50.844;4.308;2024-02-21T14:29:14;13.43;;;6.40;;
39888;SDS011;25563;50.844;4.308;2024-02-21T14:31:40;9.90;;;6.15;;
39888;SDS011;25563;50.844;4.308;2024-02-21T14:34:05;13.52;;;6.88;;
39888;SDS011;25563;50.844;4.308;2024-02-21T14:36:32;14.00;;;6.25;;
39888;SDS011;25563;50.844;4.308;2024-02-21T14:38:58;7.32;;;5.45;;
39888;SDS011;25563;50.844;4.308;2024-02-21T14:41:24;13.52;;;6.15;;
39888;SDS011;25563;50.844;4.308;2024-02-21T14:43:50;10.25;;;5.57;;
39888;SDS011;25563;50.844;4.308;2024-02-21T14:46:16;10.90;;;5.55;;